Time;durP1;ratioP1;P1;durP2;ratioP2;P2;SDS_P1;SDS_P2;PMS_P1;PMS_P2;Temp;Humidity;BMP_temperature;BMP_pressure;BME280_temperature;BME280_humidity;BME280_pressure;Samples;Min_cycle;Max_cycle;Signal;HPM_P1;HPM_P2
2023/10/09 00:00:31;;;;;;;7.00;5.88;;;;;;;14.26;65.12;101378.97;691353;28;1226;-92
2023/10/09 00:01:13;;;;;;;6.80;5.80;;;;;;;14.23;65.13;101379.78;691123;28;1218;-92
2023/10/09 00:01:34;;;;;;;11.20;6.13;;;;;;;14.18;65.24;101365.66;694119;28;1109;-93
2023/10/09 00:01:54;;;;;;;10.52;5.60;;;;;;;14.23;64.99;101377.16;686106;28;1152;-92
2023/10/09 00:02:15;;;;;;;8.15;5.53;;;;;;;14.19;64.99;101377.03;688946;28;1227;-92
2023/10/09 00:02:37;;;;;;;8.70;5.13;;;;;;;14.20;64.91;101381.44;691327;28;1419;-92
2023/10/09 00:03:00;;;;;;;9.20;5.15;;;;;;;14.17;64.93;101379.63;688859;28;1227;-93
2023/10/09 00:03:24;;;;;;;7.65;4.68;;;;;;;14.09;65.19;101366.28;688590;28;1383;-92
2023/10/09 00:03:45;;;;;;;6.95;5.10;;;;;;;14.19;65.13;101387.53;694119;28;1260;-92
2023/10/09 00:04:10;;;;;;;7.40;5.68;;;;;;;14.15;65.01;101373.47;688600;28;1606;-92
2023/10/09 00:04:31;;;;;;;8.20;6.10;;;;;;;14.18;64.79;101378.78;691290;28;1294;-92
2023/10/09 00:04:52;;;;;;;9.02;6.00;;;;;;;14.11;65.08;101363.72;691316;28;1335;-92
2023/10/09 00:05:22;;;;;;;10.00;5.90;;;;;;;14.18;65.26;101377.88;691564;28;1153;-92
2023/10/09 00:05:46;;;;;;;8.07;5.30;;;;;;;14.09;65.01;101366.28;690443;28;1236;-92
2023/10/09 00:06:07;;;;;;;6.90;5.47;;;;;;;14.11;65.18;101368.97;693933;28;1350;-92
2023/10/09 00:06:36;;;;;;;6.95;5.70;;;;;;;14.14;65.05;101376.94;694004;28;1190;-92
2023/10/09 00:06:59;;;;;;;8.80;6.10;;;;;;;14.13;65.16;101372.53;691499;28;1363;-92
2023/10/09 00:07:20;;;;;;;9.13;6.00;;;;;;;14.05;65.31;101360.94;688783;28;1296;-92
2023/10/09 00:07:41;;;;;;;9.82;5.97;;;;;;;14.09;65.38;101365.41;691384;28;1128;-92
2023/10/09 00:08:03;;;;;;;8.43;6.03;;;;;;;14.08;65.29;101366.25;694006;28;1313;-92
2023/10/09 00:08:30;;;;;;;7.47;5.80;;;;;;;14.11;65.21;101368.97;691263;28;1106;-92
2023/10/09 00:08:54;;;;;;;7.70;5.50;;;;;;;14.08;65.39;101364.50;691319;28;1443;-92
2023/10/09 00:09:48;;;;;;;11.48;5.88;;;;;;;14.08;65.09;101371.50;694051;28;1247;-93
2023/10/09 00:10:12;;;;;;;8.75;5.97;;;;;;;14.08;65.31;101368.88;688704;28;1271;-92
2023/10/09 00:10:45;;;;;;;9.20;5.97;;;;;;;14.07;65.28;101367.13;691053;28;1306;-92
2023/10/09 00:11:21;;;;;;;11.32;6.20;;;;;;;14.06;65.00;101367.94;691080;28;1459;-92
2023/10/09 00:11:44;;;;;;;10.98;6.53;;;;;;;14.10;65.42;101377.69;690733;28;1310;-92
2023/10/09 00:12:10;;;;;;;13.75;6.53;;;;;;;14.10;65.17;101380.31;696635;28;1374;-93
2023/10/09 00:12:32;;;;;;;14.90;6.60;;;;;;;13.97;65.26;101359.00;693984;28;1240;-92
2023/10/09 00:12:53;;;;;;;15.35;6.40;;;;;;;13.97;65.46;101356.38;688509;28;1244;-92
2023/10/09 00:13:14;;;;;;;10.25;6.10;;;;;;;14.03;65.33;101362.63;693955;28;1342;-92
2023/10/09 00:13:34;;;;;;;10.90;6.40;;;;;;;13.98;65.35;101357.28;691406;28;1180;-92
2023/10/09 00:13:58;;;;;;;9.47;6.20;;;;;;;14.04;65.33;101367.03;690323;28;1343;-93
2023/10/09 00:14:19;;;;;;;8.35;6.07;;;;;;;14.02;65.29;101363.50;693108;28;1294;-92
2023/10/09 00:14:40;;;;;;;8.67;6.20;;;;;;;14.06;65.30;101367.94;694031;28;1104;-92
2023/10/09 00:15:11;;;;;;;11.27;6.72;;;;;;;14.06;65.59;101370.56;694112;28;1294;-92
2023/10/09 00:15:33;;;;;;;9.68;6.40;;;;;;;14.04;65.44;101372.28;691122;28;1324;-95
2023/10/09 00:15:59;;;;;;;7.68;5.72;;;;;;;14.01;65.22;101369.59;688331;28;1105;-95
2023/10/09 00:16:34;;;;;;;8.45;6.13;;;;;;;14.01;65.28;101366.97;691171;28;1423;-94
2023/10/09 00:17:31;;;;;;;7.25;5.60;;;;;;;14.00;65.34;101373.06;688090;28;1350;-95
2023/10/09 00:17:51;;;;;;;7.93;5.80;;;;;;;13.93;65.42;101364.16;691435;28;1270;-95
2023/10/09 00:18:12;;;;;;;8.38;5.80;;;;;;;13.98;65.25;101371.31;688056;28;1265;-95
2023/10/09 00:18:34;;;;;;;8.20;5.60;;;;;;;13.97;65.36;101372.13;690886;28;1347;-95
2023/10/09 00:18:57;;;;;;;7.32;5.20;;;;;;;14.00;65.21;101375.69;687207;28;1382;-95
2023/10/09 00:19:26;;;;;;;7.60;5.50;;;;;;;14.02;65.67;101374.00;688162;28;1403;-94
2023/10/09 00:19:47;;;;;;;8.68;5.97;;;;;;;14.00;65.59;101376.56;691128;28;1267;-95
2023/10/09 00:20:19;;;;;;;10.48;5.95;;;;;;;14.00;65.52;101370.44;687794;28;1387;-94
2023/10/09 00:20:42;;;;;;;11.85;6.30;;;;;;;14.02;65.42;101380.09;691116;28;1319;-94
2023/10/09 00:21:12;;;;;;;11.75;6.72;;;;;;;13.98;65.69;101373.94;688369;28;1296;-95
2023/10/09 00:21:34;;;;;;;9.20;6.78;;;;;;;14.01;65.45;101377.47;685575;28;1412;-94
2023/10/09 00:21:58;;;;;;;9.23;6.53;;;;;;;14.00;65.53;101367.81;690229;28;1206;-95
2023/10/09 00:22:25;;;;;;;10.23;6.78;;;;;;;13.99;65.47;101372.19;688331;28;1355;-95
2023/10/09 00:22:46;;;;;;;10.23;7.00;;;;;;;13.99;65.56;101369.56;694354;28;1196;-94
2023/10/09 00:23:15;;;;;;;8.43;6.90;;;;;;;13.98;65.40;101363.44;691159;28;1137;-94
2023/10/09 00:23:36;;;;;;;8.48;6.38;;;;;;;14.03;65.60;101367.88;691039;28;1384;-95
2023/10/09 00:23:59;;;;;;;8.55;6.20;;;;;;;14.05;65.58;101367.06;691262;28;1224;-95
2023/10/09 00:24:23;;;;;;;8.68;6.40;;;;;;;14.08;65.73;101374.13;690636;28;1375;-94
2023/10/09 00:24:46;;;;;;;9.48;6.90;;;;;;;14.06;65.58;101368.84;693170;28;1446;-95
2023/10/09 00:25:11;;;;;;;8.27;6.63;;;;;;;14.10;65.63;101367.19;687794;28;1325;-94
2023/10/09 00:25:36;;;;;;;10.13;6.97;;;;;;;14.11;65.66;101367.25;685393;28;1413;-95
2023/10/09 00:26:09;;;;;;;10.32;6.95;;;;;;;14.14;65.91;101373.41;693988;28;1369;-95
2023/10/09 00:26:35;;;;;;;8.90;6.43;;;;;;;14.09;65.80;101361.03;696652;28;1331;-96
2023/10/09 00:27:12;;;;;;;7.72;5.80;;;;;;;14.16;65.65;101362.13;688761;28;1299;-94
2023/10/09 00:27:36;;;;;;;8.77;5.90;;;;;;;14.22;65.76;101370.13;693134;28;1357;-95
2023/10/09 00:27:59;;;;;;;10.40;6.80;;;;;;;14.19;65.48;101358.66;691343;28;1243;-95
2023/10/09 00:28:34;;;;;;;9.77;7.15;;;;;;;14.21;65.54;101360.47;688375;28;1271;-95
2023/10/09 00:28:54;;;;;;;9.77;6.60;;;;;;;14.23;65.71;101353.53;694061;28;1354;-95
2023/10/09 00:29:21;;;;;;;9.43;6.43;;;;;;;14.18;65.56;101349.91;688257;28;1239;-95
2023/10/09 00:29:44;;;;;;;10.38;6.68;;;;;;;14.25;65.60;101361.41;690989;28;1268;-95
2023/10/09 00:30:06;;;;;;;10.77;7.10;;;;;;;14.26;65.66;101350.09;693693;28;1342;-94
2023/10/09 00:30:30;;;;;;;11.70;7.50;;;;;;;14.25;65.66;101349.19;691154;28;1506;-93
2023/10/09 00:30:52;;;;;;;8.75;6.97;;;;;;;14.33;65.69;101361.59;691298;28;1255;-95
2023/10/09 00:31:16;;;;;;;11.55;6.97;;;;;;;14.25;65.66;101348.28;688430;28;1254;-95
2023/10/09 00:31:37;;;;;;;12.23;6.75;;;;;;;14.33;65.66;101364.22;696510;28;1249;-95
2023/10/09 00:32:13;;;;;;;13.63;7.05;;;;;;;14.31;65.71;101352.81;696841;28;1357;-95
2023/10/09 00:33:29;;;;;;;11.15;7.78;;;;;;;14.42;65.68;101366.13;694135;28;699;-94
2023/10/09 00:34:15;;;;;;;10.35;7.03;;;;;;;14.45;65.75;101361.84;699546;28;1066;-95
2023/10/09 00:34:39;;;;;;;9.20;6.50;;;;;;;14.43;65.70;101358.31;693420;28;1228;-95
2023/10/09 00:35:35;;;;;;;8.35;6.10;;;;;;;14.51;65.57;101369.84;691437;28;996;-95
2023/10/09 00:36:11;;;;;;;10.93;7.95;;;;;;;14.48;65.43;101364.56;688516;28;1284;-95
2023/10/09 00:36:32;;;;;;;13.18;8.15;;;;;;;14.56;65.62;101367.31;693649;28;1296;-95
2023/10/09 00:36:53;;;;;;;13.45;8.35;;;;;;;14.58;65.63;101367.38;696812;28;1223;-95
2023/10/09 00:37:17;;;;;;;10.23;7.50;;;;;;;14.52;65.50;101352.38;685707;28;1998;-95
2023/10/09 00:37:37;;;;;;;8.10;7.15;;;;;;;14.58;65.67;101357.75;691202;28;1269;-94
2023/10/09 00:38:06;;;;;;;8.75;7.32;;;;;;;14.64;65.58;101371.00;694146;28;1287;-94
2023/10/09 00:38:33;;;;;;;9.40;7.70;;;;;;;14.59;65.66;101356.91;691175;28;1264;-94
2023/10/09 00:38:54;;;;;;;8.82;7.93;;;;;;;14.59;65.63;101348.13;691314;28;1339;-94
2023/10/09 00:39:22;;;;;;;9.55;7.70;;;;;;;14.64;65.50;101357.00;688447;28;1188;-95
2023/10/09 00:39:44;;;;;;;9.32;7.25;;;;;;;14.61;65.74;101354.28;685871;28;1364;-94
2023/10/09 00:40:13;;;;;;;10.43;7.30;;;;;;;14.69;65.63;101364.97;688057;28;1359;-95
2023/10/09 00:40:36;;;;;;;13.93;8.48;;;;;;;14.68;65.69;101361.44;691102;28;1263;-94
2023/10/09 00:41:04;;;;;;;12.70;8.25;;;;;;;14.71;65.68;101363.25;688607;28;1303;-95
2023/10/09 00:41:24;;;;;;;10.43;7.00;;;;;;;14.72;65.60;101363.28;691285;28;1355;-94
2023/10/09 00:41:45;;;;;;;9.70;6.82;;;;;;;14.70;65.66;101351.88;691361;28;1346;-95
2023/10/09 00:42:07;;;;;;;11.13;7.10;;;;;;;14.76;65.59;101356.34;688299;28;1392;-95
2023/10/09 00:42:29;;;;;;;11.45;7.20;;;;;;;14.74;65.70;101353.69;687937;28;1285;-95
2023/10/09 00:42:52;;;;;;;11.38;7.25;;;;;;;14.74;65.63;101353.69;688611;28;1433;-94
2023/10/09 00:43:19;;;;;;;12.68;7.50;;;;;;;14.76;65.53;101351.97;693782;28;1220;-91
2023/10/09 00:43:43;;;;;;;12.93;8.80;;;;;;;14.75;65.69;101347.56;693893;28;1223;-92
2023/10/09 00:44:07;;;;;;;12.63;8.68;;;;;;;14.75;65.72;101342.31;688403;28;1376;-92
2023/10/09 00:44:38;;;;;;;11.88;8.05;;;;;;;14.76;65.79;101344.09;691084;28;1338;-91
2023/10/09 00:45:09;;;;;;;13.57;8.13;;;;;;;14.72;65.61;101334.38;691420;28;1323;-92
2023/10/09 00:45:32;;;;;;;15.40;8.43;;;;;;;14.80;65.57;101351.19;688398;28;1348;-92
2023/10/09 00:45:53;;;;;;;15.50;8.77;;;;;;;14.84;65.69;101348.63;688500;28;1400;-91
2023/10/09 00:46:34;;;;;;;12.93;8.52;;;;;;;14.82;65.65;101339.81;685669;28;1220;-92
2023/10/09 00:47:07;;;;;;;11.70;8.57;;;;;;;14.79;65.88;101338.91;691356;28;1350;-92
2023/10/09 00:47:33;;;;;;;14.85;8.63;;;;;;;14.86;65.50;101354.81;686162;28;1259;-93
2023/10/09 00:47:58;;;;;;;18.73;8.20;;;;;;;14.86;65.66;101344.28;688641;28;1314;-92
2023/10/09 00:48:30;;;;;;;18.30;8.30;;;;;;;14.75;65.55;101323.94;688103;28;1403;-92
2023/10/09 00:48:59;;;;;;;13.90;8.13;;;;;;;14.79;65.66;101338.00;691170;28;1556;-92
2023/10/09 00:49:22;;;;;;;12.02;7.43;;;;;;;14.77;65.80;101332.72;693810;28;1264;-92
2023/10/09 00:49:43;;;;;;;11.48;7.38;;;;;;;14.81;65.54;101338.91;688464;28;1248;-92
2023/10/09 00:50:20;;;;;;;10.60;7.70;;;;;;;14.84;65.53;101340.72;690966;28;1201;-92
2023/10/09 00:50:52;;;;;;;13.13;8.82;;;;;;;14.77;65.66;101337.09;691200;28;1252;-92
2023/10/09 00:51:19;;;;;;;18.95;9.60;;;;;;;14.80;65.69;101334.53;688318;28;1286;-92
2023/10/09 00:51:56;;;;;;;21.33;9.70;;;;;;;14.80;65.54;101338.06;691102;28;1257;-92
2023/10/09 00:52:31;;;;;;;16.67;10.18;;;;;;;14.77;65.83;101323.97;691010;28;1113;-92
2023/10/09 00:53:09;;;;;;;14.60;10.10;;;;;;;14.85;65.80;101337.25;695973;28;1476;-93
2023/10/09 00:53:33;;;;;;;21.35;10.00;;;;;;;14.87;66.00;101339.03;691113;28;1247;-92
2023/10/09 00:53:58;;;;;;;20.95;10.00;;;;;;;14.83;65.97;101333.72;696693;28;1309;-92
2023/10/09 00:54:19;;;;;;;16.85;9.27;;;;;;;14.89;65.88;101339.09;690943;28;1259;-92
2023/10/09 00:54:41;;;;;;;13.40;9.25;;;;;;;14.88;65.24;101337.31;693976;28;1127;-92
2023/10/09 00:55:56;;;;;;;13.40;9.00;;;;;;;14.92;65.89;101333.88;690593;28;1410;-92
2023/10/09 00:56:57;;;;;;;14.30;9.07;;;;;;;14.87;66.24;101325.03;687263;28;1388;-93
2023/10/09 00:57:24;;;;;;;18.98;11.15;;;;;;;14.93;66.18;101330.38;685594;28;1988;-93
2023/10/09 00:57:57;;;;;;;20.73;11.80;;;;;;;14.93;66.08;101325.13;685148;28;1336;-92
2023/10/09 00:58:23;;;;;;;18.17;11.63;;;;;;;14.94;66.26;101325.16;688312;28;1229;-92
2023/10/09 00:58:55;;;;;;;16.58;11.75;;;;;;;14.99;66.15;101327.88;691260;28;1252;-92
2023/10/09 00:59:20;;;;;;;17.08;11.57;;;;;;;15.02;66.22;101313.91;693835;28;1346;-92
2023/10/09 00:59:43;;;;;;;18.45;11.38;;;;;;;15.05;66.03;101309.59;685759;28;1355;-93
2023/10/09 01:00:11;;;;;;;18.95;11.93;;;;;;;15.15;66.20;101318.53;691333;28;1253;-92
2023/10/09 01:00:32;;;;;;;19.20;12.43;;;;;;;15.17;66.06;101321.19;688345;28;1228;-92
2023/10/09 01:00:53;;;;;;;18.80;12.32;;;;;;;15.15;66.10;101321.19;689895;28;1360;-91
2023/10/09 01:01:16;;;;;;;17.45;11.43;;;;;;;15.14;65.80;101308.00;685667;28;1159;-92
2023/10/09 01:01:40;;;;;;;16.15;11.55;;;;;;;15.11;66.06;101302.69;691170;28;1333;-92
2023/10/09 01:02:07;;;;;;;17.25;12.27;;;;;;;15.16;66.01;101311.53;693874;28;1091;-92
2023/10/09 01:02:35;;;;;;;19.55;13.25;;;;;;;15.10;65.94;101295.69;690941;28;1278;-92
2023/10/09 01:03:10;;;;;;;18.63;12.48;;;;;;;15.16;65.85;101307.16;690613;28;1275;-92
2023/10/09 01:03:33;;;;;;;22.05;12.45;;;;;;;15.19;66.17;101309.84;691027;28;1308;-92
2023/10/09 01:03:54;;;;;;;21.23;12.13;;;;;;;15.12;66.07;101293.94;688676;28;1349;-93
2023/10/09 01:04:15;;;;;;;19.30;11.43;;;;;;;15.21;65.99;101308.19;688269;28;1321;-93
2023/10/09 01:04:40;;;;;;;16.23;11.57;;;;;;;15.25;65.91;101316.09;688454;28;1282;-92
2023/10/09 01:05:18;;;;;;;17.05;11.20;;;;;;;15.21;65.91;101312.53;691232;28;1300;-92
2023/10/09 01:05:51;;;;;;;17.08;10.68;;;;;;;15.21;66.13;101310.81;690348;28;1537;-92
2023/10/09 01:06:42;;;;;;;19.27;12.13;;;;;;;15.23;66.19;101310.81;690923;28;1195;-92
2023/10/09 01:07:21;;;;;;;20.35;12.30;;;;;;;15.33;65.94;101315.41;691109;28;1300;-92
2023/10/09 01:07:44;;;;;;;20.13;12.80;;;;;;;15.37;66.28;101320.69;683191;28;1195;-92
2023/10/09 01:08:16;;;;;;;21.25;13.10;;;;;;;15.31;66.21;101300.44;690873;28;1225;-93
2023/10/09 01:09:11;;;;;;;16.75;12.05;;;;;;;15.41;66.23;101302.34;685783;28;1234;-92
2023/10/09 01:09:37;;;;;;;17.40;12.85;;;;;;;15.43;66.22;101311.16;688729;28;1199;-93
2023/10/09 01:10:09;;;;;;;20.48;13.90;;;;;;;15.51;66.18;101313.91;688392;28;1221;-92
2023/10/09 01:10:50;;;;;;;24.70;14.27;;;;;;;15.54;66.44;101306.06;686020;28;1252;-92
2023/10/09 01:11:18;;;;;;;20.90;13.70;;;;;;;15.58;66.27;101309.63;691102;28;1190;-92
2023/10/09 01:11:48;;;;;;;21.00;14.00;;;;;;;15.55;66.30;101294.69;691254;28;1364;-92
2023/10/09 01:12:16;;;;;;;28.23;14.57;;;;;;;15.57;66.17;101300.88;691176;28;1311;-92
2023/10/09 01:12:43;;;;;;;30.70;14.90;;;;;;;15.71;66.15;101322.13;693949;28;1133;-92
2023/10/09 01:13:04;;;;;;;29.42;15.35;;;;;;;15.68;66.09;101306.28;685658;28;1335;-92
2023/10/09 01:13:39;;;;;;;22.60;14.70;;;;;;;15.72;65.86;101318.63;691229;28;1278;-92
2023/10/09 01:14:22;;;;;;;22.05;14.98;;;;;;;15.71;66.05;101310.69;693938;28;1324;-92
2023/10/09 01:14:41;;;;;;;25.20;15.93;;;;;;;15.74;66.16;101305.50;688192;28;1426;-92
2023/10/09 01:15:06;;;;;;;23.90;15.40;;;;;;;15.77;65.76;101310.81;696861;28;1302;-93
2023/10/09 01:15:36;;;;;;;23.50;15.23;;;;;;;15.74;66.26;101305.50;694064;28;1289;-93
2023/10/09 01:15:57;;;;;;;22.48;15.30;;;;;;;15.79;66.21;101302.94;688702;28;1279;-92
2023/10/09 01:16:22;;;;;;;23.55;15.50;;;;;;;15.75;66.10;101297.63;696393;28;1220;-93
2023/10/09 01:16:44;;;;;;;20.25;14.10;;;;;;;15.85;66.26;101306.53;694148;28;1310;-93
2023/10/09 01:17:08;;;;;;;18.95;14.30;;;;;;;15.88;66.20;101314.47;687805;28;1943;-93
2023/10/09 01:17:35;;;;;;;20.25;15.05;;;;;;;15.90;66.27;101317.13;688310;28;1327;-92
2023/10/09 01:17:58;;;;;;;20.30;14.90;;;;;;;15.87;66.11;101312.69;691257;28;1446;-93
2023/10/09 01:18:20;;;;;;;16.75;13.82;;;;;;;15.97;66.14;101326.03;690808;28;1168;-92
2023/10/09 01:18:41;;;;;;;17.23;14.40;;;;;;;15.85;66.02;101309.16;690982;28;1331;-92
2023/10/09 01:19:06;;;;;;;18.88;14.77;;;;;;;15.92;66.08;101318.03;695949;28;1424;-92
2023/10/09 01:19:33;;;;;;;22.33;15.73;;;;;;;15.94;66.08;101320.69;685825;28;1318;-91
2023/10/09 01:19:56;;;;;;;24.23;16.25;;;;;;;15.93;66.15;101322.47;693530;28;1429;-92
2023/10/09 01:20:27;;;;;;;23.52;16.55;;;;;;;16.04;66.06;101336.66;696438;28;1239;-93
2023/10/09 01:20:49;;;;;;;22.00;16.00;;;;;;;15.98;65.95;101326.03;688575;28;1147;-92
2023/10/09 01:21:14;;;;;;;22.48;15.43;;;;;;;16.02;66.15;101325.22;688292;28;1223;-93
2023/10/09 01:21:35;;;;;;;22.55;15.10;;;;;;;15.99;66.22;101317.25;688422;28;1253;-92
2023/10/09 01:22:02;;;;;;;25.50;15.10;;;;;;;16.04;66.27;101319.94;688461;28;1248;-92
2023/10/09 01:22:23;;;;;;;30.63;15.57;;;;;;;16.08;66.14;101321.78;691083;28;1403;-93
2023/10/09 01:22:43;;;;;;;29.93;15.80;;;;;;;16.13;66.36;101324.47;691278;28;1160;-92
2023/10/09 01:23:07;;;;;;;28.00;16.07;;;;;;;16.06;66.24;101312.09;690964;28;1186;-92
2023/10/09 01:23:29;;;;;;;21.65;15.90;;;;;;;16.17;66.22;101327.16;691030;28;1257;-92
2023/10/09 01:24:03;;;;;;;22.50;16.55;;;;;;;16.14;66.28;101327.13;688425;28;1311;-92
2023/10/09 01:24:26;;;;;;;24.65;16.90;;;;;;;16.19;66.14;101319.28;696085;28;1247;-93
2023/10/09 01:24:50;;;;;;;25.15;16.83;;;;;;;16.20;66.44;101318.44;696648;28;1276;-92
2023/10/09 01:25:11;;;;;;;22.77;15.27;;;;;;;16.18;66.14;101321.03;685665;28;1240;-92
2023/10/09 01:25:42;;;;;;;22.42;15.18;;;;;;;16.24;66.17;101330.78;696272;28;1430;-92
2023/10/09 01:26:03;;;;;;;21.15;14.38;;;;;;;16.20;66.23;101321.06;696432;28;1254;-92
2023/10/09 01:26:25;;;;;;;21.73;14.98;;;;;;;16.26;66.31;101338.72;685654;28;1251;-93
2023/10/09 01:26:46;;;;;;;22.20;14.88;;;;;;;16.20;65.95;101318.44;688474;28;1075;-92
2023/10/09 01:27:14;;;;;;;25.27;14.40;;;;;;;16.24;66.22;101324.63;693808;28;1224;-93
2023/10/09 01:27:38;;;;;;;24.17;13.55;;;;;;;16.21;66.07;101321.97;691168;28;1414;-92
2023/10/09 01:28:00;;;;;;;23.30;13.05;;;;;;;16.23;65.83;101321.09;691105;28;1272;-92
2023/10/09 01:28:24;;;;;;;18.63;13.60;;;;;;;16.22;66.00;101319.31;688330;28;1277;-92
2023/10/09 01:28:46;;;;;;;18.65;14.15;;;;;;;16.27;66.13;101325.59;691127;28;1284;-93
2023/10/09 01:29:19;;;;;;;20.45;15.35;;;;;;;16.26;65.98;101323.81;695992;28;1223;-92
2023/10/09 01:29:41;;;;;;;24.13;16.30;;;;;;;16.24;66.11;101327.25;691169;28;1466;-92
2023/10/09 01:30:03;;;;;;;24.30;16.30;;;;;;;16.26;66.10;101320.28;696101;28;1375;-92
2023/10/09 01:30:23;;;;;;;25.48;15.68;;;;;;;16.18;66.19;101307.00;693445;28;1209;-93
2023/10/09 01:30:45;;;;;;;24.38;15.45;;;;;;;16.27;66.07;101324.69;686006;28;1276;-93
2023/10/09 01:31:08;;;;;;;24.38;15.73;;;;;;;16.26;66.33;101318.56;690585;28;1307;-91
2023/10/09 01:31:33;;;;;;;24.65;15.80;;;;;;;16.23;66.46;101318.47;693161;28;1166;-92
2023/10/09 01:31:56;;;;;;;24.60;15.80;;;;;;;16.26;66.37;101321.19;695096;28;1238;-92
2023/10/09 01:32:19;;;;;;;28.77;16.60;;;;;;;16.30;66.35;101325.63;694930;28;1201;-92
2023/10/09 01:32:40;;;;;;;28.85;16.65;;;;;;;16.25;66.44;101315.88;693959;28;1263;-92
2023/10/09 01:33:12;;;;;;;28.92;16.45;;;;;;;16.27;66.28;101312.41;693738;28;1208;-92
2023/10/09 01:33:35;;;;;;;22.52;15.10;;;;;;;16.35;66.30;101336.19;688412;28;1228;-92
2023/10/09 01:33:59;;;;;;;22.75;15.85;;;;;;;16.33;66.42;101322.13;694123;28;1250;-92
2023/10/09 01:34:24;;;;;;;24.98;17.60;;;;;;;16.31;66.55;101316.84;691101;28;1340;-93
2023/10/09 01:34:49;;;;;;;22.90;17.20;;;;;;;16.30;66.62;101311.56;691236;28;1335;-93
2023/10/09 01:35:21;;;;;;;26.25;17.10;;;;;;;16.35;66.54;101309.88;691234;28;1289;-93
2023/10/09 01:35:47;;;;;;;27.02;17.40;;;;;;;16.43;66.64;101318.75;688413;28;1455;-91
2023/10/09 01:36:09;;;;;;;21.88;16.40;;;;;;;16.44;66.83;101315.28;688261;28;1315;-91
2023/10/09 01:36:33;;;;;;;24.70;15.20;;;;;;;16.48;66.78;101323.19;688247;28;1347;-92
2023/10/09 01:36:55;;;;;;;28.77;15.50;;;;;;;16.47;66.54;101321.44;691041;28;1269;-93
2023/10/09 01:37:18;;;;;;;25.67;15.57;;;;;;;16.46;66.58;101306.50;690923;28;1918;-93
2023/10/09 01:37:39;;;;;;;25.10;16.50;;;;;;;16.48;66.55;101315.31;688382;28;1198;-92
2023/10/09 01:38:00;;;;;;;23.67;16.90;;;;;;;16.50;66.38;101308.28;691267;28;1181;-92
2023/10/09 01:38:40;;;;;;;22.80;16.95;;;;;;;16.54;66.40;101310.09;687309;28;1345;-92
2023/10/09 01:39:21;;;;;;;25.45;17.58;;;;;;;16.61;66.53;101314.59;691266;28;1328;-92
2023/10/09 01:39:42;;;;;;;28.52;18.73;;;;;;;16.60;66.58;101310.19;691239;28;1252;-92
2023/10/09 01:40:37;;;;;;;30.88;18.88;;;;;;;16.64;66.54;101317.25;688319;28;1330;-92
2023/10/09 01:40:51;;;;;;;22.92;17.20;;;;;;;16.62;66.38;101316.34;690764;28;1437;-93
2023/10/09 01:41:16;;;;;;;22.65;16.33;;;;;;;16.66;66.45;101309.38;687896;28;1387;-92
2023/10/09 01:41:46;;;;;;;26.75;17.00;;;;;;;16.69;66.40;101326.09;690687;28;1334;-92
2023/10/09 01:42:07;;;;;;;28.85;17.35;;;;;;;16.63;66.41;101307.56;690354;28;1260;-92
2023/10/09 01:42:34;;;;;;;29.10;17.08;;;;;;;16.67;66.22;101317.25;692008;28;1508;-93
2023/10/09 01:42:56;;;;;;;32.65;17.10;;;;;;;16.67;66.23;101314.63;691175;28;1247;-92
2023/10/09 01:43:19;;;;;;;29.00;17.63;;;;;;;16.76;66.56;101320.88;690817;28;1334;-91
2023/10/09 01:43:44;;;;;;;25.38;18.58;;;;;;;16.70;66.49;101311.16;693931;28;1322;-94
2023/10/09 01:44:10;;;;;;;27.38;19.63;;;;;;;16.77;66.78;101313.00;687891;28;1270;-92
2023/10/09 01:44:34;;;;;;;30.08;20.00;;;;;;;16.81;66.78;101322.72;692930;28;1247;-91
2023/10/09 01:44:58;;;;;;;30.73;20.40;;;;;;;16.83;66.77;101320.06;691076;28;1186;-92
2023/10/09 01:45:42;;;;;;;31.05;20.55;;;;;;;16.85;66.75;101321.88;690702;28;1256;-93
2023/10/09 01:46:05;;;;;;;29.75;19.67;;;;;;;16.92;66.55;101324.56;685307;28;1370;-92
2023/10/09 01:46:25;;;;;;;33.38;19.88;;;;;;;16.87;66.60;101313.97;690517;28;1235;-91
2023/10/09 01:46:46;;;;;;;35.63;21.27;;;;;;;16.91;66.58;101312.25;691213;28;1175;-93
2023/10/09 01:47:07;;;;;;;33.10;20.05;;;;;;;16.93;66.31;101319.31;693409;28;1264;-93
2023/10/09 01:47:31;;;;;;;30.13;20.30;;;;;;;16.99;66.50;101314.09;691170;28;1445;-92
2023/10/09 01:47:54;;;;;;;30.65;20.77;;;;;;;17.01;66.83;101329.06;691012;28;1425;-92
2023/10/09 01:48:23;;;;;;;28.23;20.77;;;;;;;16.98;66.88;101311.47;690903;28;1213;-92
2023/10/09 01:48:46;;;;;;;31.77;20.75;;;;;;;17.05;66.79;101312.41;688259;28;1296;-93
2023/10/09 01:49:16;;;;;;;32.85;21.20;;;;;;;17.11;66.76;101321.22;693701;28;1261;-91
2023/10/09 01:49:37;;;;;;;32.30;21.65;;;;;;;17.25;66.60;101329.34;691128;28;1408;-92
2023/10/09 01:49:58;;;;;;;28.33;20.88;;;;;;;17.24;66.53;101324.94;691150;28;1351;-92
2023/10/09 01:50:30;;;;;;;31.17;21.48;;;;;;;17.22;66.54;101313.47;693618;28;1406;-93
2023/10/09 01:50:51;;;;;;;31.48;21.45;;;;;;;17.33;66.33;101317.97;691120;28;1260;-93
2023/10/09 01:51:18;;;;;;;31.27;21.20;;;;;;;17.31;66.60;101319.69;688260;28;1237;-91
2023/10/09 01:51:40;;;;;;;31.48;21.67;;;;;;;17.35;66.58;101318.84;688154;28;1355;-92
2023/10/09 01:52:07;;;;;;;33.40;22.08;;;;;;;17.36;66.39;101317.97;688218;28;1257;-92
2023/10/09 01:52:30;;;;;;;37.10;22.30;;;;;;;17.43;66.43;101317.16;690205;28;1290;-91
2023/10/09 01:52:51;;;;;;;36.33;22.05;;;;;;;17.48;66.15;101312.81;688580;28;1640;-92
2023/10/09 01:53:17;;;;;;;36.60;21.15;;;;;;;17.54;66.29;101323.41;690531;28;1310;-92
2023/10/09 01:53:38;;;;;;;36.10;21.63;;;;;;;17.52;66.21;101324.28;691130;28;1344;-92
2023/10/09 01:53:59;;;;;;;38.23;21.00;;;;;;;17.53;66.28;101315.50;693535;28;1252;-92
2023/10/09 01:54:33;;;;;;;32.33;21.40;;;;;;;17.52;66.13;101325.16;692938;28;1302;-92
2023/10/09 01:54:53;;;;;;;32.47;20.88;;;;;;;17.52;66.18;101317.22;694112;28;1001;-93
2023/10/09 01:56:15;;;;;;;33.70;21.85;;;;;;;17.72;66.12;101316.50;690711;28;1225;-93
2023/10/09 01:56:39;;;;;;;31.08;20.88;;;;;;;17.70;66.21;101312.94;690806;28;1270;-92
2023/10/09 01:57:09;;;;;;;29.58;20.58;;;;;;;17.70;66.03;101318.22;688346;28;1091;-93
2023/10/09 01:57:30;;;;;;;31.65;21.35;;;;;;;17.84;66.13;101318.34;687998;28;1363;-93
2023/10/09 01:57:50;;;;;;;37.10;22.07;;;;;;;17.79;66.21;101318.31;693177;28;1250;-94
2023/10/09 01:58:45;;;;;;;33.75;19.88;;;;;;;17.79;66.21;101312.16;688324;28;1270;-92
2023/10/09 01:59:09;;;;;;;29.38;20.20;;;;;;;17.85;66.13;101312.19;690942;28;1216;-93
2023/10/09 01:59:31;;;;;;;31.23;20.08;;;;;;;17.89;66.24;101319.25;687815;28;1390;-92
2023/10/09 01:59:56;;;;;;;31.30;19.90;;;;;;;17.86;66.04;101306.03;683067;28;1405;-92
2023/10/09 02:00:23;;;;;;;28.13;19.30;;;;;;;17.95;65.96;101313.13;688040;28;1365;-92
2023/10/09 02:00:48;;;;;;;31.40;19.90;;;;;;;17.94;65.90;101308.69;696440;28;1465;-93
2023/10/09 02:01:10;;;;;;;31.27;20.20;;;;;;;18.00;65.84;101316.66;693849;28;1472;-93
2023/10/09 02:01:33;;;;;;;23.67;18.35;;;;;;;17.97;65.67;101313.13;693681;28;1300;-93
2023/10/09 02:01:58;;;;;;;23.88;18.15;;;;;;;17.98;65.77;101315.78;697236;28;1218;-93
2023/10/09 02:02:26;;;;;;;25.00;17.90;;;;;;;17.93;65.64;101307.84;685562;28;1261;-92
2023/10/09 02:02:46;;;;;;;28.58;18.88;;;;;;;17.93;65.89;101307.84;691203;28;1384;-93
2023/10/09 02:03:12;;;;;;;30.45;18.77;;;;;;;17.96;65.99;101304.34;688064;28;1236;-92
2023/10/09 02:03:41;;;;;;;33.42;19.90;;;;;;;17.97;65.81;101311.38;687913;28;1238;-92
2023/10/09 02:04:08;;;;;;;28.13;20.20;;;;;;;17.98;65.86;101307.88;696435;28;1379;-91
2023/10/09 02:04:29;;;;;;;26.75;19.08;;;;;;;17.98;65.69;101309.59;693504;28;1412;-93
2023/10/09 02:04:51;;;;;;;27.70;18.53;;;;;;;18.00;65.69;101315.81;688603;28;1253;-92
2023/10/09 02:05:36;;;;;;;26.75;18.38;;;;;;;17.93;66.04;101309.59;693689;28;1220;-92
2023/10/09 02:06:04;;;;;;;28.23;18.58;;;;;;;17.92;65.88;101303.44;682912;29;1364;-94
2023/10/09 02:06:26;;;;;;;27.38;18.45;;;;;;;17.98;65.91;101313.16;688271;28;1289;-92
2023/10/09 02:06:51;;;;;;;29.40;18.85;;;;;;;17.96;65.99;101301.69;688280;28;1235;-93